Airfield :
LOGIN :

Register | Disclaimer

   EN    FR    IT 

 










Legend :    VFR   Marginal VFR   IFR   Intensive IFR   Very Intensive IFR
Visi :
Ceiling :
>= 8 km
>= 3000ft
5 to 8 km
1000 to 3000 ft
1500m to 5 km
500 to 1000 ft
800 to 1500m
200 to 500 ft
< 800m
< 200 ft
Symbols :   Thunderstorms  Fog  Heavy snow  Heavy precipitations  Wind > 20 kt
SIGMETs :     Misc.  Thunderstorms  Icing  Turbulence  Mountain Waves  Volcanic Ashes






- Airport Elevation : 751 ft
- IATA code : ENC


LFSN - Nancy Essey

CURRENT METAR :
  • 212330Z AUTO 20013KT 170V230 8000 -RA OVC020 09/07 Q1008

EXPIRED METARs :
  • 212300Z AUTO 20012KT 170V230 9999 -RA BKN019 OVC025 09/07 Q1008
  • 212230Z AUTO 21012G23KT 170V230 8000 -RA BKN018 BKN027 OVC041 09/07 Q1009
  • 212200Z AUTO 20012KT 8000 RA BKN017 BKN022 OVC041 09/07 Q1009
  • 212130Z AUTO 20013KT 180V240 9999 -RA SCT020 OVC039 09/07 Q1010
  • 212100Z AUTO 20011KT 9999 -RA SCT021 OVC048 08/06 Q1010
  • 212030Z AUTO 20008KT 170V230 9999 -RA SCT029 SCT035 BKN054 08/05 Q1011
  • 212000Z AUTO 20007KT 9999 -RA FEW026 BKN035 BKN045 08/05 Q1011
  • 211930Z AUTO 19010KT 9999 -RA FEW038 BKN064 OVC074 08/05 Q1012
  • 211900Z AUTO 20010KT 170V230 9999 -RA NSC 08/05 Q1012

Expired Forecast.



MET'MAP, your aeronautical weather chart ! - Copyright ORBIFLY December 2007 - Disclaimer

ORBIFLY MET'MAP TEAM :

Programming & Development : Alexandra Zaïnal
Original concept : Baudouin d'Aumeries
Technical & hardware support : Manuel Goepfert
Assistance : Marc-Olivier Méhu




SOURCES & CREDITS :

   NOAA